sensor_id;sensor_type;location;lat;lon;timestamp;temperature;humidity
6956;DHT22;50345;51.136;16.886;2023-06-14T00:00:20;12.10;99.90
6956;DHT22;50345;51.136;16.886;2023-06-14T00:02:46;12.00;99.90
6956;DHT22;50345;51.136;16.886;2023-06-14T00:05:12;12.00;99.90
6956;DHT22;50345;51.136;16.886;2023-06-14T00:07:39;12.00;99.90
6956;DHT22;50345;51.136;16.886;2023-06-14T00:10:12;11.90;99.90
6956;DHT22;50345;51.136;16.886;2023-06-14T00:12:38;11.90;99.90
6956;DHT22;50345;51.136;16.886;2023-06-14T00:15:05;11.90;99.90
6956;DHT22;50345;51.136;16.886;2023-06-14T00:17:31;11.90;99.90
6956;DHT22;50345;51.136;16.886;2023-06-14T00:32:11;11.60;99.90
6956;DHT22;50345;51.136;16.886;2023-06-14T02:20:12;10.60;99.90
6956;DHT22;50345;51.136;16.886;2023-06-14T05:01:44;13.70;99.90
6956;DHT22;50345;51.136;16.886;2023-06-14T05:04:17;13.80;99.90
6956;DHT22;50345;51.136;16.886;2023-06-14T05:06:43;14.00;99.90
6956;DHT22;50345;51.136;16.886;2023-06-14T05:14:13;14.40;99.90
6956;DHT22;50345;51.136;16.886;2023-06-14T05:16:39;14.50;99.90
6956;DHT22;50345;51.136;16.886;2023-06-14T05:21:31;14.80;99.90
6956;DHT22;50345;51.136;16.886;2023-06-14T05:24:00;15.00;99.90
6956;DHT22;50345;51.136;16.886;2023-06-14T05:26:26;15.10;99.90
6956;DHT22;50345;51.136;16.886;2023-06-14T05:28:58;15.20;99.90
6956;DHT22;50345;51.136;16.886;2023-06-14T05:31:26;15.20;99.90
6956;DHT22;50345;51.136;16.886;2023-06-14T05:33:53;15.20;99.90
6956;DHT22;50345;51.136;16.886;2023-06-14T05:36:21;15.30;99.90
6956;DHT22;50345;51.136;16.886;2023-06-14T05:38:47;15.30;99.90
6956;DHT22;50345;51.136;16.886;2023-06-14T05:41:13;15.40;99.90
6956;DHT22;50345;51.136;16.886;2023-06-14T05:46:05;15.70;99.90
6956;DHT22;50345;51.136;16.886;2023-06-14T05:48:31;15.90;99.90
6956;DHT22;50345;51.136;16.886;2023-06-14T05:50:56;16.00;99.90
6956;DHT22;50345;51.136;16.886;2023-06-14T05:53:22;16.20;99.90
6956;DHT22;50345;51.136;16.886;2023-06-14T05:55:48;16.30;99.90
6956;DHT22;50345;51.136;16.886;2023-06-14T05:58:14;16.30;99.90
6956;DHT22;50345;51.136;16.886;2023-06-14T06:00:40;16.20;99.90
6956;DHT22;50345;51.136;16.886;2023-06-14T06:03:05;16.10;99.90
6956;DHT22;50345;51.136;16.886;2023-06-14T06:05:33;16.00;99.90
6956;DHT22;50345;51.136;16.886;2023-06-14T06:07:59;15.90;99.90
6956;DHT22;50345;51.136;16.886;2023-06-14T06:10:25;15.90;99.90
6956;DHT22;50345;51.136;16.886;2023-06-14T06:12:51;15.90;99.90
6956;DHT22;50345;51.136;16.886;2023-06-14T06:15:17;16.10;99.90
6956;DHT22;50345;51.136;16.886;2023-06-14T06:17:44;16.20;99.90
6956;DHT22;50345;51.136;16.886;2023-06-14T06:20:10;16.30;99.90
6956;DHT22;50345;51.136;16.886;2023-06-14T06:22:39;16.50;99.90
6956;DHT22;50345;51.136;16.886;2023-06-14T06:25:05;16.50;99.90
6956;DHT22;50345;51.136;16.886;2023-06-14T06:27:32;16.60;99.90
6956;DHT22;50345;51.136;16.886;2023-06-14T06:29:57;16.70;99.90
6956;DHT22;50345;51.136;16.886;2023-06-14T06:32:23;16.90;99.90
6956;DHT22;50345;51.136;16.886;2023-06-14T06:34:49;17.10;99.90
6956;DHT22;50345;51.136;16.886;2023-06-14T06:37:15;17.30;99.90
6956;DHT22;50345;51.136;16.886;2023-06-14T06:39:41;17.40;99.90
6956;DHT22;50345;51.136;16.886;2023-06-14T06:42:06;17.60;99.90
6956;DHT22;50345;51.136;16.886;2023-06-14T06:44:32;17.80;99.90
6956;DHT22;50345;51.136;16.886;2023-06-14T06:46:59;18.00;99.90
6956;DHT22;50345;51.136;16.886;2023-06-14T06:49:25;18.20;99.90
6956;DHT22;50345;51.136;16.886;2023-06-14T06:52:04;18.40;99.90
6956;DHT22;50345;51.136;16.886;2023-06-14T06:59:23;19.00;99.90
6956;DHT22;50345;51.136;16.886;2023-06-14T07:04:15;19.40;99.90
6956;DHT22;50345;51.136;16.886;2023-06-14T07:06:43;19.50;99.90
6956;DHT22;50345;51.136;16.886;2023-06-14T07:09:09;19.50;99.90
6956;DHT22;50345;51.136;16.886;2023-06-14T07:11:42;19.50;99.90
6956;DHT22;50345;51.136;16.886;2023-06-14T07:14:08;19.50;99.90
6956;DHT22;50345;51.136;16.886;2023-06-14T07:16:34;19.40;99.90
6956;DHT22;50345;51.136;16.886;2023-06-14T07:18:59;19.30;99.90
6956;DHT22;50345;51.136;16.886;2023-06-14T07:21:26;19.10;99.90
6956;DHT22;50345;51.136;16.886;2023-06-14T07:26:19;18.90;99.90
6956;DHT22;50345;51.136;16.886;2023-06-14T07:28:45;18.80;99.90
6956;DHT22;50345;51.136;16.886;2023-06-14T07:31:11;18.80;99.90
6956;DHT22;50345;51.136;16.886;2023-06-14T07:33:38;18.80;99.90
6956;DHT22;50345;51.136;16.886;2023-06-14T07:36:03;18.70;99.90
6956;DHT22;50345;51.136;16.886;2023-06-14T07:38:29;18.60;99.90
6956;DHT22;50345;51.136;16.886;2023-06-14T07:40:55;18.70;99.90
6956;DHT22;50345;51.136;16.886;2023-06-14T07:43:21;19.10;99.90
6956;DHT22;50345;51.136;16.886;2023-06-14T07:48:12;19.90;99.90
6956;DHT22;50345;51.136;16.886;2023-06-14T07:50:38;20.30;99.90
6956;DHT22;50345;51.136;16.886;2023-06-14T10:46:19;26.80;63.90
6956;DHT22;50345;51.136;16.886;2023-06-14T10:48:48;27.30;62.60
6956;DHT22;50345;51.136;16.886;2023-06-14T10:51:20;28.10;58.40
6956;DHT22;50345;51.136;16.886;2023-06-14T10:53:48;28.20;56.50
6956;DHT22;50345;51.136;16.886;2023-06-14T10:56:26;27.80;56.10
6956;DHT22;50345;51.136;16.886;2023-06-14T10:58:52;27.30;56.60
6956;DHT22;50345;51.136;16.886;2023-06-14T14:23:17;21.10;97.20
6956;DHT22;50345;51.136;16.886;2023-06-14T14:25:45;21.10;97.50
6956;DHT22;50345;51.136;16.886;2023-06-14T14:28:11;21.10;97.30
6956;DHT22;50345;51.136;16.886;2023-06-14T14:30:36;21.20;97.30
6956;DHT22;50345;51.136;16.886;2023-06-14T14:33:05;21.20;96.70
6956;DHT22;50345;51.136;16.886;2023-06-14T14:35:31;21.30;96.90
6956;DHT22;50345;51.136;16.886;2023-06-14T14:37:57;21.30;97.00
6956;DHT22;50345;51.136;16.886;2023-06-14T14:40:23;21.30;96.30
6956;DHT22;50345;51.136;16.886;2023-06-14T14:42:49;21.30;96.70
6956;DHT22;50345;51.136;16.886;2023-06-14T14:45:14;21.30;96.60
6956;DHT22;50345;51.136;16.886;2023-06-14T14:47:40;21.30;96.70
6956;DHT22;50345;51.136;16.886;2023-06-14T14:50:06;21.30;96.50
6956;DHT22;50345;51.136;16.886;2023-06-14T14:52:34;21.40;96.60
6956;DHT22;50345;51.136;16.886;2023-06-14T14:55:00;21.50;96.50
6956;DHT22;50345;51.136;16.886;2023-06-14T14:57:26;21.60;96.40
6956;DHT22;50345;51.136;16.886;2023-06-14T14:59:52;21.90;96.10
6956;DHT22;50345;51.136;16.886;2023-06-14T15:02:18;22.10;95.70
6956;DHT22;50345;51.136;16.886;2023-06-14T15:04:45;22.30;95.10
6956;DHT22;50345;51.136;16.886;2023-06-14T15:07:11;22.40;93.80
6956;DHT22;50345;51.136;16.886;2023-06-14T15:09:37;22.60;93.00
6956;DHT22;50345;51.136;16.886;2023-06-14T15:12:03;22.80;92.30
6956;DHT22;50345;51.136;16.886;2023-06-14T15:14:29;23.10;90.80
6956;DHT22;50345;51.136;16.886;2023-06-14T15:16:54;23.40;88.40
6956;DHT22;50345;51.136;16.886;2023-06-14T15:19:20;23.80;85.70
6956;DHT22;50345;51.136;16.886;2023-06-14T15:24:12;26.50;68.40
6956;DHT22;50345;51.136;16.886;2023-06-14T15:29:03;27.70;57.90
6956;DHT22;50345;51.136;16.886;2023-06-14T15:31:29;27.70;56.80
6956;DHT22;50345;51.136;16.886;2023-06-14T15:33:55;27.50;56.20
6956;DHT22;50345;51.136;16.886;2023-06-14T15:36:21;27.10;55.80
6956;DHT22;50345;51.136;16.886;2023-06-14T15:38:46;26.70;56.20
6956;DHT22;50345;51.136;16.886;2023-06-14T15:41:12;26.30;57.10
6956;DHT22;50345;51.136;16.886;2023-06-14T15:43:38;26.00;58.10
6956;DHT22;50345;51.136;16.886;2023-06-14T15:46:03;25.70;58.70
6956;DHT22;50345;51.136;16.886;2023-06-14T15:48:29;25.50;58.80
6956;DHT22;50345;51.136;16.886;2023-06-14T15:50:55;25.20;59.20
6956;DHT22;50345;51.136;16.886;2023-06-14T15:55:46;24.60;60.50
6956;DHT22;50345;51.136;16.886;2023-06-14T15:58:12;24.50;62.90
6956;DHT22;50345;51.136;16.886;2023-06-14T16:00:38;24.30;63.50
6956;DHT22;50345;51.136;16.886;2023-06-14T16:03:04;24.20;64.50
6956;DHT22;50345;51.136;16.886;2023-06-14T16:05:29;24.20;65.80
6956;DHT22;50345;51.136;16.886;2023-06-14T16:07:55;24.90;64.90
6956;DHT22;50345;51.136;16.886;2023-06-14T16:10:20;25.00;64.70
6956;DHT22;50345;51.136;16.886;2023-06-14T16:12:46;25.10;64.80
6956;DHT22;50345;51.136;16.886;2023-06-14T16:15:12;25.20;64.60
6956;DHT22;50345;51.136;16.886;2023-06-14T16:17:37;24.90;64.60
6956;DHT22;50345;51.136;16.886;2023-06-14T16:22:29;24.10;73.50
6956;DHT22;50345;51.136;16.886;2023-06-14T16:27:21;23.50;99.90
6956;DHT22;50345;51.136;16.886;2023-06-14T16:29:47;23.30;72.00
6956;DHT22;50345;51.136;16.886;2023-06-14T16:37:04;22.80;75.50
6956;DHT22;50345;51.136;16.886;2023-06-14T16:39:30;22.60;77.90
6956;DHT22;50345;51.136;16.886;2023-06-14T16:41:56;22.40;79.90
6956;DHT22;50345;51.136;16.886;2023-06-14T16:44:21;22.20;82.40
6956;DHT22;50345;51.136;16.886;2023-06-14T16:46:47;22.00;84.20
6956;DHT22;50345;51.136;16.886;2023-06-14T16:49:13;21.90;85.20
6956;DHT22;50345;51.136;16.886;2023-06-14T16:51:39;21.70;85.00
6956;DHT22;50345;51.136;16.886;2023-06-14T16:54:04;21.60;86.80
6956;DHT22;50345;51.136;16.886;2023-06-14T16:58:57;21.30;88.20
6956;DHT22;50345;51.136;16.886;2023-06-14T17:01:25;21.20;89.90
6956;DHT22;50345;51.136;16.886;2023-06-14T17:03:52;21.10;90.40
6956;DHT22;50345;51.136;16.886;2023-06-14T17:06:18;21.00;90.70
6956;DHT22;50345;51.136;16.886;2023-06-14T17:08:46;21.00;91.30
6956;DHT22;50345;51.136;16.886;2023-06-14T17:11:11;20.90;91.70
6956;DHT22;50345;51.136;16.886;2023-06-14T17:13:37;20.80;92.10
6956;DHT22;50345;51.136;16.886;2023-06-14T17:16:03;20.70;93.00
6956;DHT22;50345;51.136;16.886;2023-06-14T17:18:33;20.60;93.70
6956;DHT22;50345;51.136;16.886;2023-06-14T17:20:58;20.50;94.30
6956;DHT22;50345;51.136;16.886;2023-06-14T17:23:24;20.40;94.80
6956;DHT22;50345;51.136;16.886;2023-06-14T17:28:16;20.20;96.40
6956;DHT22;50345;51.136;16.886;2023-06-14T17:30:42;20.10;97.50
6956;DHT22;50345;51.136;16.886;2023-06-14T17:33:08;20.00;98.50
6956;DHT22;50345;51.136;16.886;2023-06-14T17:35:35;20.00;99.40
6956;DHT22;50345;51.136;16.886;2023-06-14T17:38:02;19.90;99.90
6956;DHT22;50345;51.136;16.886;2023-06-14T17:40:28;19.80;99.90
6956;DHT22;50345;51.136;16.886;2023-06-14T17:42:54;19.80;99.90
6956;DHT22;50345;51.136;16.886;2023-06-14T17:45:19;19.80;99.90
6956;DHT22;50345;51.136;16.886;2023-06-14T17:47:45;19.70;99.90
6956;DHT22;50345;51.136;16.886;2023-06-14T17:50:11;19.70;99.90
6956;DHT22;50345;51.136;16.886;2023-06-14T17:52:36;19.60;99.90
6956;DHT22;50345;51.136;16.886;2023-06-14T17:55:02;19.60;99.90
6956;DHT22;50345;51.136;16.886;2023-06-14T17:57:28;19.60;99.90
6956;DHT22;50345;51.136;16.886;2023-06-14T17:59:53;19.60;99.90
6956;DHT22;50345;51.136;16.886;2023-06-14T18:02:21;19.60;99.90
6956;DHT22;50345;51.136;16.886;2023-06-14T18:04:47;19.50;99.90
6956;DHT22;50345;51.136;16.886;2023-06-14T18:07:13;19.50;99.90
6956;DHT22;50345;51.136;16.886;2023-06-14T18:09:38;19.50;99.90
6956;DHT22;50345;51.136;16.886;2023-06-14T18:12:04;19.40;99.90
6956;DHT22;50345;51.136;16.886;2023-06-14T18:14:31;19.40;99.90
6956;DHT22;50345;51.136;16.886;2023-06-14T20:50:58;16.70;99.90
6956;DHT22;50345;51.136;16.886;2023-06-14T20:53:24;16.60;99.90
6956;DHT22;50345;51.136;16.886;2023-06-14T20:55:50;16.50;99.90
6956;DHT22;50345;51.136;16.886;2023-06-14T20:58:15;16.50;99.90
6956;DHT22;50345;51.136;16.886;2023-06-14T21:00:42;16.50;99.90
6956;DHT22;50345;51.136;16.886;2023-06-14T21:03:10;16.40;99.90
6956;DHT22;50345;51.136;16.886;2023-06-14T21:05:36;16.40;99.90
6956;DHT22;50345;51.136;16.886;2023-06-14T21:08:02;16.40;99.90
6956;DHT22;50345;51.136;16.886;2023-06-14T21:10:28;16.30;99.90
6956;DHT22;50345;51.136;16.886;2023-06-14T21:12:54;16.30;99.90
6956;DHT22;50345;51.136;16.886;2023-06-14T21:15:22;16.30;99.90
6956;DHT22;50345;51.136;16.886;2023-06-14T21:17:54;16.20;99.90
6956;DHT22;50345;51.136;16.886;2023-06-14T21:20:20;16.20;99.90
6956;DHT22;50345;51.136;16.886;2023-06-14T21:22:46;16.20;99.90
6956;DHT22;50345;51.136;16.886;2023-06-14T21:25:15;16.20;99.90
6956;DHT22;50345;51.136;16.886;2023-06-14T21:27:41;16.20;99.90
6956;DHT22;50345;51.136;16.886;2023-06-14T21:30:07;16.20;99.90
6956;DHT22;50345;51.136;16.886;2023-06-14T21:32:34;16.20;99.90
6956;DHT22;50345;51.136;16.886;2023-06-14T21:35:04;16.20;99.90
6956;DHT22;50345;51.136;16.886;2023-06-14T21:37:30;16.20;99.90
6956;DHT22;50345;51.136;16.886;2023-06-14T21:39:56;16.30;99.90
6956;DHT22;50345;51.136;16.886;2023-06-14T21:42:21;16.20;99.90
6956;DHT22;50345;51.136;16.886;2023-06-14T21:44:47;16.30;99.90
6956;DHT22;50345;51.136;16.886;2023-06-14T21:47:14;16.30;99.90
6956;DHT22;50345;51.136;16.886;2023-06-14T21:49:40;16.20;99.90
6956;DHT22;50345;51.136;16.886;2023-06-14T21:52:10;16.20;99.90
6956;DHT22;50345;51.136;16.886;2023-06-14T21:54:36;16.20;99.90
6956;DHT22;50345;51.136;16.886;2023-06-14T21:57:02;16.20;99.90
6956;DHT22;50345;51.136;16.886;2023-06-14T21:59:28;16.20;99.90
6956;DHT22;50345;51.136;16.886;2023-06-14T22:01:53;16.10;99.90
6956;DHT22;50345;51.136;16.886;2023-06-14T22:04:19;16.10;99.90
6956;DHT22;50345;51.136;16.886;2023-06-14T22:06:45;16.10;99.90
6956;DHT22;50345;51.136;16.886;2023-06-14T22:09:11;16.10;99.90
6956;DHT22;50345;51.136;16.886;2023-06-14T22:11:38;16.10;99.90
6956;DHT22;50345;51.136;16.886;2023-06-14T22:14:07;16.10;99.90
6956;DHT22;50345;51.136;16.886;2023-06-14T22:16:35;16.10;99.90
6956;DHT22;50345;51.136;16.886;2023-06-14T22:19:01;16.10;99.90
6956;DHT22;50345;51.136;16.886;2023-06-14T22:21:29;16.10;99.90
6956;DHT22;50345;51.136;16.886;2023-06-14T22:23:58;16.10;99.90
6956;DHT22;50345;51.136;16.886;2023-06-14T22:26:23;16.10;99.90
6956;DHT22;50345;51.136;16.886;2023-06-14T22:28:52;16.10;99.90
6956;DHT22;50345;51.136;16.886;2023-06-14T22:31:17;16.00;99.90
6956;DHT22;50345;51.136;16.886;2023-06-14T22:33:43;16.00;99.90
6956;DHT22;50345;51.136;16.886;2023-06-14T22:36:12;15.70;99.90
6956;DHT22;50345;51.136;16.886;2023-06-14T22:38:42;15.90;99.90
6956;DHT22;50345;51.136;16.886;2023-06-14T22:41:09;15.90;99.90
6956;DHT22;50345;51.136;16.886;2023-06-14T22:43:40;15.90;99.90
6956;DHT22;50345;51.136;16.886;2023-06-14T22:46:12;15.80;99.90
6956;DHT22;50345;51.136;16.886;2023-06-14T22:48:48;15.70;99.90
6956;DHT22;50345;51.136;16.886;2023-06-14T22:51:19;15.70;99.90
6956;DHT22;50345;51.136;16.886;2023-06-14T22:53:46;15.60;99.90
6956;DHT22;50345;51.136;16.886;2023-06-14T22:56:13;15.60;99.90
6956;DHT22;50345;51.136;16.886;2023-06-14T22:58:40;15.60;99.90
6956;DHT22;50345;51.136;16.886;2023-06-14T23:01:14;15.50;99.90
6956;DHT22;50345;51.136;16.886;2023-06-14T23:03:41;15.40;99.90
6956;DHT22;50345;51.136;16.886;2023-06-14T23:06:09;15.30;99.90
6956;DHT22;50345;51.136;16.886;2023-06-14T23:08:36;15.20;99.90
6956;DHT22;50345;51.136;16.886;2023-06-14T23:16:02;14.90;99.90
6956;DHT22;50345;51.136;16.886;2023-06-14T23:18:28;15.00;99.90
6956;DHT22;50345;51.136;16.886;2023-06-14T23:25:47;14.90;99.90
6956;DHT22;50345;51.136;16.886;2023-06-14T23:28:14;15.00;99.90
6956;DHT22;50345;51.136;16.886;2023-06-14T23:30:42;15.00;99.90
6956;DHT22;50345;51.136;16.886;2023-06-14T23:33:11;15.00;99.90
6956;DHT22;50345;51.136;16.886;2023-06-14T23:35:36;14.90;99.90
6956;DHT22;50345;51.136;16.886;2023-06-14T23:38:02;14.90;99.90
6956;DHT22;50345;51.136;16.886;2023-06-14T23:40:29;14.90;99.90
6956;DHT22;50345;51.136;16.886;2023-06-14T23:42:55;14.90;99.90
6956;DHT22;50345;51.136;16.886;2023-06-14T23:45:21;14.80;99.90
